createdAt,value
2022-10-06T00:00:38.441Z,98868.88
2022-10-06T00:03:28.218Z,98874.63
2022-10-06T00:06:00.818Z,98875.91
2022-10-06T00:08:29.755Z,98887.16
2022-10-06T00:10:58.882Z,98891.31
2022-10-06T00:13:27.844Z,98882.66
2022-10-06T00:15:56.263Z,98882.66
2022-10-06T00:18:25.571Z,98884.38
2022-10-06T00:20:59.771Z,98882.97
2022-10-06T00:23:29.386Z,98888.00
2022-10-06T00:25:58.490Z,98885.56
2022-10-06T00:28:27.830Z,98890.25
2022-10-06T00:30:56.608Z,98888.47
2022-10-06T00:33:25.160Z,98892.44
2022-10-06T00:35:58.964Z,98885.00
2022-10-06T00:38:28.336Z,98893.56
2022-10-06T00:40:57.187Z,98889.81
2022-10-06T00:43:47.182Z,98890.22
2022-10-06T00:46:19.791Z,98891.94
2022-10-06T00:48:51.288Z,98892.72
2022-10-06T00:51:22.351Z,98890.63
2022-10-06T00:53:51.422Z,98895.84
2022-10-06T00:56:19.794Z,98894.84
2022-10-06T00:58:50.029Z,98890.75
2022-10-06T01:01:18.455Z,98903.84
2022-10-06T01:03:50.149Z,98893.06
2022-10-06T01:06:18.892Z,98902.78
2022-10-06T01:08:48.797Z,98900.75
2022-10-06T01:11:17.593Z,98893.03
2022-10-06T01:13:46.967Z,98894.31
2022-10-06T01:16:19.625Z,98904.97
2022-10-06T01:18:49.649Z,98903.72
2022-10-06T01:21:25.163Z,98903.44
2022-10-06T01:23:57.290Z,98905.69
2022-10-06T01:26:27.904Z,98905.88
2022-10-06T01:28:56.545Z,98890.97
2022-10-06T01:31:25.413Z,98900.97
2022-10-06T01:33:54.416Z,98895.66
2022-10-06T01:36:23.069Z,98900.97
2022-10-06T01:38:51.424Z,98895.03
2022-10-06T01:41:22.475Z,98902.63
2022-10-06T01:43:51.407Z,98901.63
2022-10-06T01:46:19.639Z,98886.97
2022-10-06T01:48:47.986Z,98888.84
2022-10-06T01:51:18.420Z,98875.69
2022-10-06T01:53:46.555Z,98887.66
2022-10-06T01:56:14.733Z,98900.56
2022-10-06T01:58:44.512Z,98900.63
2022-10-06T02:01:13.654Z,98897.81
2022-10-06T02:03:42.686Z,98909.06
2022-10-06T02:06:11.913Z,98898.06
2022-10-06T02:08:40.315Z,98911.13
2022-10-06T02:11:10.395Z,98900.78
2022-10-06T02:13:39.202Z,98909.94
2022-10-06T02:16:10.518Z,98903.88
2022-10-06T02:18:39.053Z,98909.88
2022-10-06T02:21:07.969Z,98910.56
2022-10-06T02:23:36.126Z,98903.91
2022-10-06T02:26:06.512Z,98902.97
2022-10-06T02:28:35.588Z,98914.97
2022-10-06T02:31:04.781Z,98902.66
2022-10-06T02:33:36.159Z,98907.25
2022-10-06T02:36:05.053Z,98911.38
2022-10-06T02:38:33.707Z,98906.78
2022-10-06T02:41:02.802Z,98897.25
2022-10-06T02:43:31.889Z,98904.06
2022-10-06T02:46:01.877Z,98909.75
2022-10-06T02:48:31.204Z,98909.38
2022-10-06T02:51:02.838Z,98907.78
2022-10-06T02:53:31.159Z,98917.75
2022-10-06T02:56:00.843Z,98918.66
2022-10-06T02:58:31.302Z,98910.38
2022-10-06T03:01:03.943Z,98919.09
2022-10-06T03:03:32.104Z,98923.19
2022-10-06T03:06:03.107Z,98914.72
2022-10-06T03:08:31.699Z,98917.97
2022-10-06T03:11:01.649Z,98928.09
2022-10-06T03:13:30.356Z,98928.47
2022-10-06T03:15:59.294Z,98932.91
2022-10-06T03:18:27.943Z,98927.00
2022-10-06T03:21:02.771Z,98926.00
2022-10-06T03:23:31.408Z,98928.63
2022-10-06T03:25:59.645Z,98931.06
2022-10-06T03:28:28.660Z,98942.44
2022-10-06T03:31:02.765Z,98940.66
2022-10-06T03:33:31.755Z,98932.13
2022-10-06T03:36:02.481Z,98933.22
2022-10-06T03:38:32.504Z,98929.84
2022-10-06T03:41:05.248Z,98936.63
2022-10-06T03:43:33.541Z,98927.22
2022-10-06T03:46:02.845Z,98923.31
2022-10-06T03:48:32.537Z,98932.28
2022-10-06T03:51:03.518Z,98933.13
2022-10-06T03:53:33.067Z,98939.97
2022-10-06T03:56:02.596Z,98927.50
2022-10-06T03:58:32.393Z,98937.72
2022-10-06T04:01:02.823Z,98939.47
2022-10-06T04:03:31.647Z,98940.91
2022-10-06T04:06:03.007Z,98938.56
2022-10-06T04:08:33.031Z,98951.25
2022-10-06T04:11:07.513Z,98949.97
2022-10-06T04:13:35.925Z,98949.91
2022-10-06T04:16:11.827Z,98957.25
2022-10-06T04:18:40.413Z,98963.09
2022-10-06T04:21:10.739Z,98960.13
2022-10-06T04:23:39.109Z,98964.34
2022-10-06T04:26:10.577Z,98967.72
2022-10-06T04:28:40.296Z,98968.75
2022-10-06T04:31:14.660Z,98963.81
2022-10-06T04:33:43.744Z,98965.75
2022-10-06T04:36:17.215Z,98960.25
2022-10-06T04:38:45.665Z,98963.06
2022-10-06T04:41:16.045Z,98974.66
2022-10-06T04:43:46.453Z,98969.44
2022-10-06T04:46:41.067Z,98974.88
2022-10-06T04:49:03.521Z,98979.38
2022-10-06T04:51:33.469Z,98986.03
2022-10-06T04:54:02.727Z,98991.66
2022-10-06T04:56:32.070Z,98986.22
2022-10-06T04:59:00.551Z,98989.50
2022-10-06T05:01:30.627Z,98993.31
2022-10-06T05:04:00.097Z,98991.56
2022-10-06T05:06:29.639Z,98990.03
2022-10-06T05:09:01.023Z,98987.78
2022-10-06T05:11:29.811Z,98997.50
2022-10-06T05:13:59.175Z,98993.81
2022-10-06T05:16:29.207Z,98994.13
2022-10-06T05:18:58.474Z,98996.25
2022-10-06T05:21:28.889Z,98999.34
2022-10-06T05:23:59.184Z,98992.56
2022-10-06T05:26:30.250Z,98992.13
2022-10-06T05:28:58.848Z,98994.63
2022-10-06T05:31:28.217Z,98994.63
2022-10-06T05:33:57.466Z,99005.16
2022-10-06T05:36:26.809Z,99008.69
2022-10-06T05:38:55.126Z,99004.41
2022-10-06T05:41:25.848Z,99004.00
2022-10-06T05:43:54.363Z,99002.06
2022-10-06T05:46:30.058Z,99009.84
2022-10-06T05:48:59.959Z,99020.50
2022-10-06T05:51:31.216Z,99035.53
2022-10-06T05:54:00.242Z,99040.75
2022-10-06T05:56:30.975Z,99044.00
2022-10-06T05:58:59.932Z,99047.19
2022-10-06T06:01:29.808Z,99057.09
2022-10-06T06:04:00.553Z,99051.50
2022-10-06T06:06:30.532Z,99069.47
2022-10-06T06:09:00.923Z,99066.44
2022-10-06T06:11:31.989Z,99079.13
2022-10-06T06:14:01.585Z,99079.72
2022-10-06T06:16:31.069Z,99083.25
2022-10-06T06:18:59.781Z,99082.50
2022-10-06T06:21:29.107Z,99092.47
2022-10-06T06:23:57.416Z,99085.75
2022-10-06T06:26:26.655Z,99089.63
2022-10-06T06:29:00.339Z,99091.38
2022-10-06T06:31:31.492Z,99088.03
2022-10-06T06:34:01.470Z,99096.50
2022-10-06T06:36:32.095Z,99100.09
2022-10-06T06:39:00.681Z,99103.84
2022-10-06T06:41:30.409Z,99110.59
2022-10-06T06:44:00.461Z,99109.25
2022-10-06T06:46:32.210Z,99106.41
2022-10-06T06:49:04.362Z,99108.94
2022-10-06T06:51:34.584Z,99105.34
2022-10-06T06:54:03.361Z,99120.38
2022-10-06T06:56:35.304Z,99124.41
2022-10-06T06:59:10.877Z,99135.72
2022-10-06T07:01:44.635Z,99124.25
2022-10-06T07:04:13.783Z,99120.06
2022-10-06T07:06:42.726Z,99123.28
2022-10-06T07:09:11.306Z,99135.50
2022-10-06T07:11:40.923Z,99128.69
2022-10-06T07:14:12.723Z,99121.13
2022-10-06T07:16:59.057Z,99131.56
2022-10-06T07:19:52.987Z,99133.03
2022-10-06T07:22:40.401Z,99131.88
2022-10-06T07:25:13.337Z,99129.75
2022-10-06T07:27:43.467Z,99145.31
2022-10-06T07:30:19.298Z,99146.13
2022-10-06T07:32:50.041Z,99140.91
2022-10-06T07:35:20.460Z,99149.44
2022-10-06T07:37:49.581Z,99145.75
2022-10-06T07:40:18.779Z,99151.59
2022-10-06T07:42:52.227Z,99150.25
2022-10-06T07:45:41.124Z,99149.84
2022-10-06T07:48:12.146Z,99153.63
2022-10-06T07:50:41.019Z,99161.16
2022-10-06T07:53:10.071Z,99166.69
2022-10-06T07:55:40.050Z,99162.78
2022-10-06T07:58:11.846Z,99164.53
2022-10-06T08:00:42.525Z,99177.56
2022-10-06T08:03:12.408Z,99175.09
2022-10-06T08:05:40.644Z,99172.88
2022-10-06T08:08:09.047Z,99170.81
2022-10-06T08:10:37.149Z,99181.84
2022-10-06T08:13:06.503Z,99180.06
2022-10-06T08:15:34.987Z,99193.97
2022-10-06T08:18:16.473Z,99175.22
2022-10-06T08:20:49.973Z,99174.31
2022-10-06T08:23:18.319Z,99180.97
2022-10-06T08:25:51.238Z,99187.81
2022-10-06T08:28:20.619Z,99196.00
2022-10-06T08:30:54.283Z,99199.72
2022-10-06T08:33:24.187Z,99201.03
2022-10-06T08:35:52.737Z,99205.72
2022-10-06T08:38:21.833Z,99213.41
2022-10-06T08:40:50.390Z,99217.88
2022-10-06T08:43:23.368Z,99211.06
2022-10-06T08:48:30.263Z,99211.84
2022-10-06T08:51:05.061Z,99208.69
2022-10-06T08:53:38.253Z,99218.00
2022-10-06T08:56:11.005Z,99218.22
2022-10-06T08:58:50.566Z,99217.03
2022-10-06T09:01:23.610Z,99210.44
2022-10-06T09:03:56.524Z,99216.50
2022-10-06T09:06:38.019Z,99207.88
2022-10-06T09:09:13.348Z,99210.78
2022-10-06T09:11:48.682Z,99201.06
2022-10-06T09:14:22.115Z,99201.34
2022-10-06T09:16:53.753Z,99202.03
2022-10-06T09:19:29.968Z,99203.41
2022-10-06T09:22:04.678Z,99205.47
2022-10-06T09:24:36.289Z,99216.66
2022-10-06T09:27:16.552Z,99226.09
2022-10-06T09:29:44.887Z,99218.97
2022-10-06T09:32:13.742Z,99223.47
2022-10-06T09:34:45.984Z,99218.56
2022-10-06T09:37:14.979Z,99226.22
2022-10-06T09:39:44.851Z,99228.84
2022-10-06T09:42:16.397Z,99230.19
2022-10-06T09:44:51.097Z,99222.41
2022-10-06T09:47:37.000Z,99238.88
2022-10-06T09:50:20.392Z,99240.50
2022-10-06T09:53:07.429Z,99241.19
2022-10-06T09:55:43.576Z,99242.50
2022-10-06T09:58:22.226Z,99250.66
2022-10-06T10:00:56.302Z,99244.09
2022-10-06T10:03:26.145Z,99250.72
2022-10-06T10:05:56.199Z,99238.19
2022-10-06T10:08:26.165Z,99245.34
2022-10-06T10:11:33.339Z,99243.91
2022-10-06T10:14:01.817Z,99245.53
2022-10-06T10:16:34.953Z,99246.34
2022-10-06T10:19:05.365Z,99246.91
2022-10-06T10:21:36.535Z,99237.88
2022-10-06T10:24:07.113Z,99234.56
2022-10-06T10:26:44.909Z,99228.72
2022-10-06T10:29:35.386Z,99230.09
2022-10-06T10:32:12.151Z,99233.28
2022-10-06T10:34:58.767Z,99249.06
2022-10-06T10:37:35.214Z,99247.19
2022-10-06T10:40:12.063Z,99244.91
2022-10-06T10:42:45.886Z,99250.94
2022-10-06T10:45:19.285Z,99254.75
2022-10-06T10:47:48.703Z,99254.13
2022-10-06T10:50:22.178Z,99254.69
2022-10-06T10:52:53.313Z,99265.06
2022-10-06T10:55:28.019Z,99252.16
2022-10-06T10:57:59.670Z,99254.16
2022-10-06T11:00:32.234Z,99255.69
2022-10-06T11:03:02.861Z,99260.59
2022-10-06T11:05:42.822Z,99248.00
2022-10-06T11:08:17.294Z,99255.47
2022-10-06T11:10:48.974Z,99259.38
2022-10-06T11:13:24.879Z,99256.09
2022-10-06T11:16:12.231Z,99251.72
2022-10-06T11:18:49.984Z,99253.25
2022-10-06T11:21:21.442Z,99259.81
2022-10-06T11:23:58.953Z,99267.13
2022-10-06T11:26:38.418Z,99260.59
2022-10-06T11:29:11.201Z,99259.09
2022-10-06T11:31:43.669Z,99265.28
2022-10-06T11:34:12.300Z,99265.63
2022-10-06T11:36:46.846Z,99268.25
2022-10-06T11:39:23.328Z,99270.53
2022-10-06T11:41:55.215Z,99265.34
2022-10-06T11:44:32.784Z,99274.03
2022-10-06T11:47:05.166Z,99275.81
2022-10-06T11:49:52.332Z,99269.22
2022-10-06T11:52:47.572Z,99273.81
2022-10-06T11:55:22.090Z,99274.00
2022-10-06T11:58:29.899Z,99275.16
2022-10-06T12:00:57.486Z,99269.97
2022-10-06T12:04:06.374Z,99275.91
2022-10-06T12:07:02.205Z,99277.91
2022-10-06T12:09:52.269Z,99277.22
2022-10-06T12:13:01.948Z,99275.59
2022-10-06T12:19:18.879Z,99267.13
2022-10-06T12:22:00.653Z,99273.22
2022-10-06T12:24:37.072Z,99277.25
2022-10-06T12:27:25.888Z,99277.25
2022-10-06T12:30:01.551Z,99279.69
2022-10-06T12:32:41.631Z,99283.72
2022-10-06T12:35:18.185Z,99280.41
2022-10-06T12:37:53.029Z,99276.63
2022-10-06T12:40:46.876Z,99278.78
2022-10-06T12:43:30.110Z,99279.44
2022-10-06T12:46:01.691Z,99279.69
2022-10-06T12:48:37.763Z,99282.91
2022-10-06T12:51:13.853Z,99283.63
2022-10-06T12:53:49.666Z,99282.34
2022-10-06T12:56:28.688Z,99280.94
2022-10-06T12:58:57.306Z,99275.34
2022-10-06T13:01:27.470Z,99275.78
2022-10-06T13:03:56.358Z,99281.34
2022-10-06T13:06:25.847Z,99288.88
2022-10-06T13:09:13.219Z,99283.19
2022-10-06T13:11:41.553Z,99283.16
2022-10-06T13:14:11.214Z,99291.81
2022-10-06T13:16:42.369Z,99297.63
2022-10-06T13:19:18.230Z,99286.94
2022-10-06T13:21:47.034Z,99294.63
2022-10-06T13:24:19.508Z,99299.59
2022-10-06T13:26:48.009Z,99284.72
2022-10-06T13:29:20.771Z,99301.13
2022-10-06T13:31:53.133Z,99287.00
2022-10-06T13:34:25.377Z,99297.47
2022-10-06T13:36:53.885Z,99296.63
2022-10-06T13:39:23.482Z,99293.59
2022-10-06T13:41:53.897Z,99305.88
2022-10-06T13:44:32.435Z,99300.69
2022-10-06T13:47:04.382Z,99294.78
2022-10-06T13:49:34.750Z,99308.84
2022-10-06T13:52:10.012Z,99304.06
2022-10-06T13:54:42.670Z,99311.22
2022-10-06T13:57:36.753Z,99305.31
2022-10-06T14:00:13.350Z,99315.19
2022-10-06T14:02:43.672Z,99311.56
2022-10-06T14:05:31.100Z,99317.91
2022-10-06T14:08:01.427Z,99327.34
2022-10-06T14:10:32.745Z,99318.94
2022-10-06T14:13:02.432Z,99321.41
2022-10-06T14:15:33.639Z,99326.38
2022-10-06T14:18:06.246Z,99328.47
2022-10-06T14:20:38.004Z,99332.34
2022-10-06T14:23:41.023Z,99333.59
2022-10-06T14:26:10.271Z,99330.16
2022-10-06T14:28:39.286Z,99329.97
2022-10-06T14:31:13.461Z,99334.31
2022-10-06T14:33:44.347Z,99342.81
2022-10-06T14:36:17.210Z,99351.38
2022-10-06T14:38:48.343Z,99354.63
2022-10-06T14:41:19.339Z,99355.66
2022-10-06T14:43:48.774Z,99361.91
2022-10-06T14:46:17.232Z,99365.63
2022-10-06T14:48:47.654Z,99369.50
2022-10-06T14:51:16.900Z,99372.44
2022-10-06T14:53:45.159Z,99372.84
2022-10-06T14:56:15.989Z,99384.06
2022-10-06T14:58:46.042Z,99377.00
2022-10-06T15:01:17.226Z,99377.50
2022-10-06T15:03:53.415Z,99384.63
2022-10-06T15:06:39.511Z,99386.03
2022-10-06T15:09:08.345Z,99392.63
2022-10-06T15:11:37.156Z,99391.50
2022-10-06T15:14:06.179Z,99394.28
2022-10-06T15:16:37.050Z,99395.00
2022-10-06T15:19:07.010Z,99403.16
2022-10-06T15:21:35.190Z,99402.50
2022-10-06T15:24:05.453Z,99407.63
2022-10-06T15:26:51.788Z,99417.66
2022-10-06T15:29:20.007Z,99416.88
2022-10-06T15:31:52.957Z,99426.78
2022-10-06T15:34:25.390Z,99429.13
2022-10-06T15:36:55.462Z,99432.09
2022-10-06T15:39:25.989Z,99440.09
2022-10-06T15:41:54.787Z,99441.16
2022-10-06T15:44:23.403Z,99441.25
2022-10-06T15:46:53.078Z,99453.47
2022-10-06T15:49:24.469Z,99448.78
2022-10-06T15:51:54.157Z,99462.69
2022-10-06T15:54:24.183Z,99463.94
2022-10-06T15:56:53.680Z,99472.88
2022-10-06T15:59:24.147Z,99477.19
2022-10-06T16:01:56.239Z,99470.75
2022-10-06T16:04:33.887Z,99475.50
2022-10-06T16:07:02.449Z,99479.94
2022-10-06T16:09:32.855Z,99479.38
2022-10-06T16:12:02.888Z,99469.09
2022-10-06T16:14:31.664Z,99480.91
2022-10-06T16:17:00.365Z,99482.19
2022-10-06T16:19:31.602Z,99486.53
2022-10-06T16:22:00.714Z,99482.59
2022-10-06T16:24:28.882Z,99478.72
2022-10-06T16:26:58.113Z,99485.81
2022-10-06T16:29:26.545Z,99497.63
2022-10-06T16:31:54.905Z,99492.38
2022-10-06T16:34:23.786Z,99490.75
2022-10-06T16:36:53.637Z,99492.63
2022-10-06T16:39:23.141Z,99500.22
2022-10-06T16:41:52.191Z,99506.34
2022-10-06T16:44:20.568Z,99505.56
2022-10-06T16:46:49.035Z,99507.19
2022-10-06T16:49:17.242Z,99510.50
2022-10-06T16:51:46.990Z,99515.75
2022-10-06T16:54:18.319Z,99520.97
2022-10-06T16:56:48.043Z,99518.88
2022-10-06T16:59:17.869Z,99520.19
2022-10-06T17:01:48.334Z,99524.78
2022-10-06T17:04:18.544Z,99530.03
2022-10-06T17:06:48.704Z,99524.81
2022-10-06T17:09:19.191Z,99527.25
2022-10-06T17:11:49.488Z,99537.09
2022-10-06T17:14:18.037Z,99540.81
2022-10-06T17:16:48.606Z,99538.53
2022-10-06T17:19:17.921Z,99545.75
2022-10-06T17:21:48.705Z,99544.69
2022-10-06T17:24:20.519Z,99545.09
2022-10-06T17:26:50.289Z,99554.03
2022-10-06T17:29:21.352Z,99548.63
2022-10-06T17:31:51.786Z,99557.59
2022-10-06T17:34:22.911Z,99560.47
2022-10-06T17:36:53.524Z,99558.16
2022-10-06T17:39:24.726Z,99557.09
2022-10-06T17:41:53.657Z,99560.81
2022-10-06T17:44:24.212Z,99558.78
2022-10-06T17:46:55.378Z,99549.56
2022-10-06T17:49:24.956Z,99553.28
2022-10-06T17:51:55.870Z,99557.09
2022-10-06T17:54:27.241Z,99549.22
2022-10-06T17:56:57.749Z,99548.63
2022-10-06T17:59:28.613Z,99559.16
2022-10-06T18:01:58.496Z,99560.69
2022-10-06T18:04:27.258Z,99560.91
2022-10-06T18:06:56.321Z,99568.28
2022-10-06T18:09:26.925Z,99573.97
2022-10-06T18:11:58.573Z,99575.13
2022-10-06T18:14:28.276Z,99565.44
2022-10-06T18:16:58.536Z,99574.91
2022-10-06T18:19:30.264Z,99573.06
2022-10-06T18:22:00.799Z,99583.88
2022-10-06T18:24:31.761Z,99587.16
2022-10-06T18:27:01.312Z,99590.66
2022-10-06T18:29:31.438Z,99593.06
2022-10-06T18:33:28.638Z,99597.91
2022-10-06T18:37:36.966Z,99600.53
2022-10-06T18:40:10.141Z,99602.75
2022-10-06T18:42:39.073Z,99604.84
2022-10-06T18:45:26.688Z,99606.81
2022-10-06T18:48:12.251Z,99610.38
2022-10-06T18:50:40.735Z,99615.69
2022-10-06T18:53:09.289Z,99622.16
2022-10-06T18:55:38.882Z,99614.59
2022-10-06T18:58:07.220Z,99618.69
2022-10-06T19:00:35.375Z,99615.09
2022-10-06T19:03:03.839Z,99625.97
2022-10-06T19:05:32.657Z,99625.47
2022-10-06T19:08:01.760Z,99622.06
2022-10-06T19:10:31.060Z,99626.06
2022-10-06T19:13:01.180Z,99626.41
2022-10-06T19:15:29.315Z,99625.72
2022-10-06T19:17:57.771Z,99632.09
2022-10-06T19:20:25.979Z,99632.59
2022-10-06T19:22:54.302Z,99633.50
2022-10-06T19:25:23.996Z,99634.41
2022-10-06T19:27:52.188Z,99639.06
2022-10-06T19:30:23.127Z,99644.25
2022-10-06T19:32:52.601Z,99642.94
2022-10-06T19:35:21.080Z,99655.38
2022-10-06T19:37:51.168Z,99653.28
2022-10-06T19:40:19.829Z,99652.88
2022-10-06T19:42:51.133Z,99653.78
2022-10-06T19:45:21.177Z,99656.91
2022-10-06T19:47:49.353Z,99663.66
2022-10-06T19:50:18.109Z,99665.16
2022-10-06T19:52:46.775Z,99666.28
2022-10-06T19:55:15.104Z,99670.75
2022-10-06T19:57:43.727Z,99675.78
2022-10-06T20:00:13.708Z,99671.88
2022-10-06T20:02:44.389Z,99669.09
2022-10-06T20:05:13.663Z,99674.66
2022-10-06T20:07:43.871Z,99676.78
2022-10-06T20:10:12.408Z,99685.81
2022-10-06T20:12:41.566Z,99678.38
2022-10-06T20:15:11.115Z,99684.41
2022-10-06T20:17:42.311Z,99694.00
2022-10-06T20:20:13.790Z,99687.50
2022-10-06T20:22:41.985Z,99685.16
2022-10-06T20:25:11.099Z,99683.34
2022-10-06T20:27:39.402Z,99686.28
2022-10-06T20:30:08.758Z,99690.81
2022-10-06T20:32:36.945Z,99698.78
2022-10-06T20:35:05.792Z,99696.31
2022-10-06T20:37:38.416Z,99697.81
2022-10-06T20:40:25.178Z,99696.91
2022-10-06T20:42:54.921Z,99701.75
2022-10-06T20:45:23.518Z,99699.66
2022-10-06T20:47:51.793Z,99702.44
2022-10-06T20:50:20.193Z,99701.41
2022-10-06T20:52:50.152Z,99702.53
2022-10-06T20:55:18.317Z,99704.31
2022-10-06T20:57:47.328Z,99707.63
2022-10-06T21:00:17.817Z,99699.50
2022-10-06T21:02:46.398Z,99708.84
2022-10-06T21:05:14.951Z,99704.44
2022-10-06T21:07:43.383Z,99711.63
2022-10-06T21:10:13.243Z,99715.28
2022-10-06T21:12:42.451Z,99708.63
2022-10-06T21:15:11.438Z,99703.16
2022-10-06T21:17:39.653Z,99705.47
2022-10-06T21:20:08.757Z,99710.06
2022-10-06T21:22:37.407Z,99714.53
2022-10-06T21:25:06.373Z,99707.34
2022-10-06T21:27:36.097Z,99708.84
2022-10-06T21:30:04.925Z,99707.69
2022-10-06T21:32:33.368Z,99713.03
2022-10-06T21:35:02.019Z,99715.00
2022-10-06T21:37:30.639Z,99714.75
2022-10-06T21:40:02.310Z,99714.22
2022-10-06T21:42:31.425Z,99708.22
2022-10-06T21:45:01.416Z,99714.41
2022-10-06T21:47:29.793Z,99712.41
2022-10-06T21:49:58.307Z,99717.34
2022-10-06T21:52:26.590Z,99718.25
2022-10-06T21:54:55.064Z,99718.75
2022-10-06T21:57:25.424Z,99719.09
2022-10-06T21:59:53.842Z,99716.63
2022-10-06T22:02:23.740Z,99723.91
2022-10-06T22:04:52.249Z,99728.19
2022-10-06T22:07:20.519Z,99732.06
2022-10-06T22:09:49.042Z,99725.19
2022-10-06T22:12:17.360Z,99723.28
2022-10-06T22:14:45.585Z,99729.06
2022-10-06T22:17:14.065Z,99721.94
2022-10-06T22:19:43.896Z,99730.06
2022-10-06T22:22:12.412Z,99724.16
2022-10-06T22:24:40.707Z,99717.81
2022-10-06T22:27:09.009Z,99716.97
2022-10-06T22:29:37.191Z,99723.03
2022-10-06T22:32:05.577Z,99713.97
2022-10-06T22:34:33.898Z,99721.38
2022-10-06T22:37:03.553Z,99711.94
2022-10-06T22:39:32.040Z,99709.28
2022-10-06T22:42:00.240Z,99711.78
2022-10-06T22:44:28.501Z,99709.31
2022-10-06T22:46:57.038Z,99700.50
2022-10-06T22:49:25.348Z,99706.56
2022-10-06T22:51:53.611Z,99703.81
2022-10-06T22:54:26.019Z,99701.78
2022-10-06T22:56:54.248Z,99702.44
2022-10-06T22:59:22.650Z,99701.38
2022-10-06T23:01:51.133Z,99701.63
2022-10-06T23:04:19.319Z,99698.88
2022-10-06T23:06:47.876Z,99698.84
2022-10-06T23:09:16.074Z,99701.06
2022-10-06T23:11:45.660Z,99701.03
2022-10-06T23:14:14.047Z,99701.13
2022-10-06T23:16:42.269Z,99693.69
2022-10-06T23:19:11.881Z,99693.34
2022-10-06T23:21:40.487Z,99690.66
2022-10-06T23:24:08.828Z,99695.66
2022-10-06T23:26:36.963Z,99704.16
2022-10-06T23:29:07.550Z,99703.03
2022-10-06T23:31:35.755Z,99697.84
2022-10-06T23:34:04.048Z,99704.16
2022-10-06T23:36:32.631Z,99690.94
2022-10-06T23:39:01.187Z,99692.59
2022-10-06T23:41:29.463Z,99693.44
2022-10-06T23:43:57.846Z,99694.00
2022-10-06T23:46:27.322Z,99706.38
2022-10-06T23:48:55.402Z,99703.88
2022-10-06T23:51:23.729Z,99697.84
2022-10-06T23:53:51.819Z,99702.22
2022-10-06T23:56:20.870Z,99703.34
2022-10-06T23:58:49.187Z,99695.63
